Time;durP1;ratioP1;P1;durP2;ratioP2;P2;SDS_P1;SDS_P2;PMS_P1;PMS_P2;Temp;Humidity;BMP_temperature;BMP_pressure;BME280_temperature;BME280_humidity;BME280_pressure;Samples;Min_cycle;Max_cycle;Signal;HPM_P1;HPM_P2
2021/07/29 00:01:02;;;;;;;16.97;15.17;;;;;;;20.11;91.69;100034.59;1730347;82;21297;-72
2021/07/29 00:03:29;;;;;;;16.23;14.63;;;;;;;20.13;91.68;100040.45;1718700;82;21466;-72
2021/07/29 00:05:56;;;;;;;15.53;14.03;;;;;;;20.12;91.71;100038.88;1719997;82;21141;-73
2021/07/29 00:08:22;;;;;;;16.40;14.80;;;;;;;20.12;91.66;100043.73;1725041;82;21075;-72
2021/07/29 00:10:49;;;;;;;17.07;15.37;;;;;;;20.10;91.57;100040.58;1729949;82;21110;-72
2021/07/29 00:13:16;;;;;;;16.07;14.47;;;;;;;20.10;91.58;100041.12;1729585;82;21027;-73
2021/07/29 00:15:44;;;;;;;17.40;15.57;;;;;;;20.10;91.66;100041.12;1709564;82;21055;-73
2021/07/29 00:20:43;;;;;;;17.30;15.53;;;;;;;20.09;91.64;100040.33;1732353;82;21099;-74
2021/07/29 00:23:06;;;;;;;16.77;15.17;;;;;;;20.10;91.65;100043.29;1736339;82;21123;-73
2021/07/29 00:25:32;;;;;;;17.60;15.67;;;;;;;20.11;91.67;100048.94;1716628;82;21022;-75
2021/07/29 00:27:59;;;;;;;19.40;16.03;;;;;;;20.12;91.72;100049.72;1724101;82;21133;-73
2021/07/29 00:30:26;;;;;;;16.70;14.97;;;;;;;20.12;91.78;100049.16;1726046;82;21040;-71
2021/07/29 00:32:55;;;;;;;17.13;15.43;;;;;;;20.13;91.77;100043.16;1719570;82;21000;-71
2021/07/29 00:35:22;;;;;;;16.73;15.07;;;;;;;20.13;91.82;100048.59;1731950;82;21577;-71
2021/07/29 00:37:52;;;;;;;18.20;16.30;;;;;;;20.14;91.85;100058.33;1722001;80;20952;-70
2021/07/29 00:40:19;;;;;;;17.50;15.80;;;;;;;20.13;91.92;100053.44;1710518;82;21066;-71
2021/07/29 00:42:46;;;;;;;16.73;15.23;;;;;;;20.13;91.97;100054.02;1721955;82;21114;-71
2021/07/29 00:45:13;;;;;;;17.47;15.77;;;;;;;20.11;91.99;100053.57;1720436;82;21090;-71
2021/07/29 00:47:42;;;;;;;18.30;16.50;;;;;;;20.10;92.01;100056.03;1723576;82;21490;-71
2021/07/29 00:50:13;;;;;;;18.10;16.20;;;;;;;20.10;92.03;100054.67;1730287;82;22416;-70
2021/07/29 00:52:40;;;;;;;17.67;15.88;;;;;;;20.07;92.07;100045.84;1721071;82;21114;-71
2021/07/29 00:55:08;;;;;;;20.63;17.20;;;;;;;20.05;92.15;100044.05;1720983;82;21051;-70
2021/07/29 00:57:35;;;;;;;19.57;16.70;;;;;;;20.02;92.22;100040.08;1717668;82;21594;-70
2021/07/29 01:00:02;;;;;;;22.87;17.20;;;;;;;20.02;92.26;100046.86;1726984;82;21851;-71
2021/07/29 01:02:29;;;;;;;18.63;16.70;;;;;;;20.01;92.26;100043.92;1726956;82;21164;-71
2021/07/29 01:04:56;;;;;;;18.87;16.93;;;;;;;19.99;92.28;100038.03;1741040;82;21577;-71
2021/07/29 01:07:23;;;;;;;18.47;16.47;;;;;;;19.97;92.25;100042.20;1730627;82;21082;-71
2021/07/29 01:09:49;;;;;;;18.67;16.73;;;;;;;19.93;92.26;100032.58;1718828;82;21043;-72
2021/07/29 01:12:16;;;;;;;23.13;16.13;;;;;;;19.89;92.30;100035.17;1721490;82;21608;-71
2021/07/29 01:14:50;;;;;;;19.23;16.57;;;;;;;19.85;92.34;100030.19;1693390;82;21070;-71
2021/07/29 01:17:13;;;;;;;17.50;14.67;;;;;;;19.81;92.47;100029.27;1716247;82;21043;-71
2021/07/29 01:19:40;;;;;;;17.27;15.47;;;;;;;19.79;92.50;100034.78;1723601;82;21067;-71
2021/07/29 01:22:07;;;;;;;17.33;15.57;;;;;;;19.76;92.58;100031.38;1737344;82;21050;-71
2021/07/29 01:24:34;;;;;;;18.13;15.17;;;;;;;19.74;92.72;100039.83;1730286;82;21988;-71
2021/07/29 01:27:00;;;;;;;16.70;14.90;;;;;;;19.71;92.83;100034.27;1723421;81;21550;-72
2021/07/29 01:29:27;;;;;;;17.17;15.37;;;;;;;19.68;92.92;100039.25;1697305;82;21069;-72
2021/07/29 01:31:54;;;;;;;17.83;15.83;;;;;;;19.69;93.02;100041.39;1719908;83;21485;-72
2021/07/29 01:34:20;;;;;;;19.87;16.17;;;;;;;19.68;93.08;100048.73;1717939;82;21028;-71
2021/07/29 01:36:47;;;;;;;18.50;16.17;;;;;;;19.68;93.21;100054.16;1719482;81;21147;-72
2021/07/29 01:39:14;;;;;;;16.77;14.80;;;;;;;19.67;93.26;100059.88;1709576;81;21123;-72
2021/07/29 01:41:41;;;;;;;16.47;14.80;;;;;;;19.67;93.36;100064.73;1708049;82;21012;-72
2021/07/29 01:44:08;;;;;;;16.80;15.17;;;;;;;19.66;93.52;100075.35;1720040;82;21120;-72
2021/07/29 01:46:34;;;;;;;17.93;16.17;;;;;;;19.66;93.76;100075.92;1712159;82;21037;-72
2021/07/29 01:49:03;;;;;;;19.70;17.70;;;;;;;19.66;94.01;100068.58;1707208;81;21140;-73
2021/07/29 01:51:29;;;;;;;21.07;17.80;;;;;;;19.70;94.52;100066.00;1715726;82;21488;-72
2021/07/29 01:53:56;;;;;;;22.77;20.30;;;;;;;19.73;94.91;100065.34;1712539;82;21413;-72
2021/07/29 01:56:23;;;;;;;22.97;20.63;;;;;;;19.76;95.19;100060.63;1713740;82;21074;-72
2021/07/29 01:58:49;;;;;;;22.80;20.40;;;;;;;19.81;95.54;100062.33;1706319;81;21123;-72
2021/07/29 02:01:21;;;;;;;22.17;19.77;;;;;;;19.85;95.76;100060.00;1718688;81;22140;-72
2021/07/29 02:03:51;;;;;;;19.48;17.65;;;;;;;19.91;95.91;100063.31;1723022;82;21009;-72
2021/07/29 02:06:18;;;;;;;19.73;17.83;;;;;;;19.94;95.97;100063.19;1709579;82;21198;-72
2021/07/29 02:08:46;;;;;;;19.83;17.77;;;;;;;19.95;95.95;100056.66;1707660;82;21500;-72
2021/07/29 02:11:14;;;;;;;19.97;17.87;;;;;;;19.98;96.01;100060.06;1709257;81;21483;-72
2021/07/29 02:13:41;;;;;;;18.17;16.20;;;;;;;19.98;96.12;100062.21;1719788;82;21073;-73
2021/07/29 02:16:11;;;;;;;17.87;16.07;;;;;;;20.00;96.20;100061.86;1707237;82;20953;-72
2021/07/29 02:18:38;;;;;;;15.93;14.33;;;;;;;20.01;96.32;100064.26;1713983;82;21104;-72
2021/07/29 02:21:09;;;;;;;14.90;13.50;;;;;;;20.02;96.19;100082.67;1714303;81;21524;-71
2021/07/29 02:23:39;;;;;;;15.23;13.65;;;;;;;20.01;96.00;100067.53;1716007;82;21005;-72
2021/07/29 02:26:06;;;;;;;15.83;14.33;;;;;;;19.94;95.89;100065.89;1706998;82;21132;-71
2021/07/29 02:28:32;;;;;;;14.83;13.33;;;;;;;19.94;95.89;100065.89;1703600;82;22004;-72
2021/07/29 02:31:00;;;;;;;15.07;13.13;;;;;;;19.97;96.06;100078.79;1709954;81;21092;-72
2021/07/29 02:33:27;;;;;;;16.53;15.03;;;;;;;19.98;96.08;100066.84;1714193;82;20989;-72
2021/07/29 02:35:53;;;;;;;15.83;14.30;;;;;;;20.01;96.10;100072.39;1710187;82;21000;-72
2021/07/29 02:38:19;;;;;;;15.30;13.67;;;;;;;20.05;96.18;100063.03;1707081;82;21509;-72
2021/07/29 02:40:46;;;;;;;16.17;14.40;;;;;;;20.08;96.15;100056.38;1711682;82;21048;-72
2021/07/29 02:43:12;;;;;;;15.63;14.13;;;;;;;20.09;96.16;100054.45;1712649;82;21083;-72
2021/07/29 02:45:39;;;;;;;16.27;14.17;;;;;;;20.10;96.23;100050.07;1711459;82;21124;-71
2021/07/29 02:48:06;;;;;;;15.70;14.23;;;;;;;20.11;96.33;100038.09;1712442;82;21056;-71
2021/07/29 02:50:32;;;;;;;15.90;14.40;;;;;;;20.13;96.38;100034.46;1713496;81;21506;-71
2021/07/29 02:52:59;;;;;;;15.73;14.23;;;;;;;20.14;96.45;100027.94;1707603;81;21150;-71
2021/07/29 02:55:26;;;;;;;16.00;14.50;;;;;;;20.16;96.53;100026.23;1712043;82;21056;-71
2021/07/29 02:57:52;;;;;;;16.50;14.90;;;;;;;20.19;96.56;100017.43;1725900;81;21004;-71
2021/07/29 03:00:19;;;;;;;16.70;14.93;;;;;;;20.21;96.52;100013.83;1709289;82;21611;-72
2021/07/29 03:02:45;;;;;;;16.57;14.87;;;;;;;20.22;96.46;100019.48;1708955;82;21770;-72
2021/07/29 03:05:12;;;;;;;17.77;16.03;;;;;;;20.23;96.51;100022.41;1678251;84;21384;-72
2021/07/29 03:07:39;;;;;;;17.83;16.13;;;;;;;20.27;96.58;100019.81;1728456;82;21365;-71
2021/07/29 03:10:08;;;;;;;17.73;15.80;;;;;;;20.34;96.60;100007.88;1731298;80;21629;-72
2021/07/29 03:12:36;;;;;;;17.73;15.83;;;;;;;20.42;96.52;100011.61;1730450;82;21082;-72
2021/07/29 03:15:03;;;;;;;17.33;15.60;;;;;;;20.47;96.42;100009.48;1720673;82;21515;-72
2021/07/29 03:17:30;;;;;;;18.33;16.43;;;;;;;20.53;96.23;100009.53;1731631;82;21067;-71
2021/07/29 03:19:56;;;;;;;18.03;16.13;;;;;;;20.57;95.99;100011.00;1710275;82;21488;-72
2021/07/29 03:22:23;;;;;;;17.53;15.83;;;;;;;20.60;95.62;100001.62;1708188;81;21045;-73
2021/07/29 03:24:50;;;;;;;17.07;15.47;;;;;;;20.66;95.28;100004.89;1732222;80;20938;-72
2021/07/29 03:27:18;;;;;;;17.57;15.77;;;;;;;20.72;94.86;100012.25;1725942;80;22000;-72
2021/07/29 03:29:44;;;;;;;18.33;16.53;;;;;;;20.77;94.51;100010.11;1724623;80;21026;-72
2021/07/29 03:32:11;;;;;;;18.17;16.33;;;;;;;20.82;94.06;100004.44;1725419;80;21077;-71
2021/07/29 03:34:38;;;;;;;19.80;17.97;;;;;;;20.89;93.64;100004.45;1729140;82;21053;-71
2021/07/29 03:37:05;;;;;;;19.97;17.97;;;;;;;20.96;93.26;100000.05;1720781;82;21123;-71
2021/07/29 03:39:31;;;;;;;18.10;16.20;;;;;;;21.06;93.04;100000.16;1724112;82;21491;-71
2021/07/29 03:41:58;;;;;;;16.93;15.27;;;;;;;21.14;92.60;99996.52;1708950;81;21499;-71
2021/07/29 03:44:24;;;;;;;18.23;16.37;;;;;;;21.23;92.33;99998.55;1696784;82;21026;-71
2021/07/29 03:46:51;;;;;;;18.27;16.60;;;;;;;21.31;92.13;99996.83;1705825;83;21085;-71
2021/07/29 03:49:17;;;;;;;18.80;16.90;;;;;;;21.39;92.10;99997.85;1737601;82;21030;-71
2021/07/29 03:51:43;;;;;;;17.73;16.03;;;;;;;21.48;91.90;99995.23;1706912;81;21550;-72
2021/07/29 03:54:10;;;;;;;17.33;15.60;;;;;;;21.60;91.76;100003.92;1727867;80;20930;-72
2021/07/29 03:56:37;;;;;;;16.87;15.07;;;;;;;21.71;91.60;100002.29;1714365;81;21535;-71
2021/07/29 03:59:04;;;;;;;17.90;16.10;;;;;;;21.80;91.23;99992.64;1701817;82;21053;-71
2021/07/29 04:01:32;;;;;;;17.70;16.07;;;;;;;21.89;90.83;99992.50;1700160;82;21022;-71
2021/07/29 04:04:00;;;;;;;17.10;15.40;;;;;;;21.97;90.28;99992.33;1703215;82;21053;-71
2021/07/29 04:06:27;;;;;;;17.60;16.00;;;;;;;22.05;89.75;99990.61;1702312;83;21506;-71
2021/07/29 04:08:55;;;;;;;17.83;16.00;;;;;;;22.15;89.27;99989.31;1710442;81;21047;-71
2021/07/29 04:11:22;;;;;;;16.93;15.13;;;;;;;22.22;88.82;99982.73;1716461;82;21111;-72
2021/07/29 04:13:49;;;;;;;16.93;15.33;;;;;;;22.30;88.33;99989.92;1713934;81;21039;-72
2021/07/29 04:16:15;;;;;;;17.07;15.40;;;;;;;22.39;87.77;99984.31;1714824;82;21739;-71
2021/07/29 04:18:44;;;;;;;17.57;15.77;;;;;;;22.48;87.12;99989.02;1713231;82;21491;-71
2021/07/29 04:21:15;;;;;;;17.40;15.60;;;;;;;22.57;86.65;99993.70;1704721;82;21048;-72
2021/07/29 04:23:42;;;;;;;16.85;15.10;;;;;;;22.66;86.35;99990.81;1712845;81;21006;-72
2021/07/29 04:26:10;;;;;;;16.80;15.20;;;;;;;22.78;85.74;99990.72;1720195;81;21040;-72
2021/07/29 04:28:38;;;;;;;16.57;14.93;;;;;;;22.89;84.88;100001.86;1711605;82;21843;-72
2021/07/29 04:31:05;;;;;;;17.60;15.90;;;;;;;23.03;83.93;99993.25;1722949;81;21111;-72
2021/07/29 04:33:31;;;;;;;17.17;15.43;;;;;;;23.10;82.51;99994.77;1708936;81;21502;-72
2021/07/29 04:36:00;;;;;;;19.63;17.67;;;;;;;23.20;81.90;99994.80;1715893;82;21052;-72
2021/07/29 04:38:27;;;;;;;17.83;16.10;;;;;;;23.30;81.38;99994.27;1716412;82;21044;-72
2021/07/29 04:41:04;;;;;;;16.83;15.23;;;;;;;23.38;80.41;99993.26;1714686;82;21123;-71
2021/07/29 04:43:31;;;;;;;16.43;14.73;;;;;;;23.48;79.90;99994.63;1709111;81;21012;-71
2021/07/29 04:46:03;;;;;;;16.50;14.27;;;;;;;23.57;79.52;99988.40;1715898;82;21641;-72
2021/07/29 04:48:30;;;;;;;15.80;14.23;;;;;;;23.67;79.38;99991.13;1710685;82;21119;-71
2021/07/29 04:51:05;;;;;;;16.17;14.57;;;;;;;23.78;79.41;99988.84;1706426;82;20949;-73
2021/07/29 04:53:32;;;;;;;16.03;14.53;;;;;;;23.88;79.20;99991.56;1709865;81;21138;-71
2021/07/29 04:56:02;;;;;;;16.33;14.80;;;;;;;24.00;78.93;99991.41;1713711;82;21024;-71
2021/07/29 04:58:30;;;;;;;18.13;16.27;;;;;;;24.14;78.67;99992.83;1710512;82;21087;-71
2021/07/29 05:00:56;;;;;;;18.37;16.57;;;;;;;24.26;78.17;99994.03;1714321;82;20946;-71
2021/07/29 05:03:25;;;;;;;21.30;18.57;;;;;;;24.36;77.03;99983.88;1711780;81;21088;-72
2021/07/29 05:05:52;;;;;;;17.77;16.17;;;;;;;24.48;76.57;99982.36;1723025;82;21135;-71
2021/07/29 05:08:20;;;;;;;17.90;16.10;;;;;;;24.61;75.69;99976.69;1712851;82;21054;-72
2021/07/29 05:10:47;;;;;;;15.83;13.90;;;;;;;24.70;75.31;99975.28;1704499;81;21005;-72
2021/07/29 05:13:14;;;;;;;13.90;12.50;;;;;;;24.82;74.73;99984.45;1707465;81;21021;-72
2021/07/29 05:15:42;;;;;;;15.30;13.80;;;;;;;24.93;74.04;99982.66;1711187;81;21147;-72
2021/07/29 05:18:09;;;;;;;14.80;13.27;;;;;;;25.00;73.96;99980.80;1722687;82;21164;-72
2021/07/29 05:20:44;;;;;;;14.03;12.77;;;;;;;25.10;73.21;99978.02;1709282;82;21484;-72
2021/07/29 05:23:12;;;;;;;13.67;12.37;;;;;;;25.18;72.44;99974.85;1711260;82;21028;-71
2021/07/29 05:25:39;;;;;;;15.17;13.63;;;;;;;25.30;71.78;99978.70;1712060;82;21075;-72
2021/07/29 05:28:05;;;;;;;14.97;13.47;;;;;;;25.41;70.91;99972.81;1718368;82;21579;-72
2021/07/29 05:30:34;;;;;;;13.97;12.50;;;;;;;25.54;70.41;99969.84;1712953;82;21128;-72
2021/07/29 05:33:01;;;;;;;14.03;12.60;;;;;;;25.67;69.92;99962.97;1697687;81;21087;-71
2021/07/29 05:35:27;;;;;;;13.73;12.13;;;;;;;25.76;69.00;99963.44;1714025;82;21099;-71
2021/07/29 05:37:54;;;;;;;13.17;11.83;;;;;;;25.87;68.53;99963.02;1716387;82;21603;-71
2021/07/29 05:40:21;;;;;;;13.07;11.87;;;;;;;25.96;67.29;99962.14;1708546;82;21066;-71
2021/07/29 05:42:47;;;;;;;15.27;12.10;;;;;;;26.04;65.74;99957.52;1719800;82;21570;-72
2021/07/29 05:45:16;;;;;;;28.27;13.07;;;;;;;26.13;65.46;99955.27;1709611;81;21028;-71
2021/07/29 05:47:43;;;;;;;22.23;12.20;;;;;;;26.22;65.16;99952.20;1706645;81;21048;-71
2021/07/29 05:50:11;;;;;;;12.93;11.50;;;;;;;26.28;64.96;99952.06;1716743;82;21024;-71
2021/07/29 05:52:37;;;;;;;14.37;11.97;;;;;;;26.38;64.81;99942.36;1706280;81;21701;-71
2021/07/29 05:55:05;;;;;;;11.50;10.30;;;;;;;26.47;64.53;99944.80;1708739;81;21582;-71
2021/07/29 05:57:34;;;;;;;11.80;10.57;;;;;;;26.59;64.76;99944.53;1712876;82;21004;-71
2021/07/29 06:00:01;;;;;;;11.50;10.37;;;;;;;26.66;64.92;99945.36;1714696;81;21071;-71
2021/07/29 06:02:28;;;;;;;11.47;10.37;;;;;;;26.78;64.89;99946.98;1710493;82;21124;-71
2021/07/29 06:04:54;;;;;;;13.40;9.97;;;;;;;26.87;64.45;99945.29;1714744;81;21029;-72
2021/07/29 06:07:21;;;;;;;11.03;9.77;;;;;;;26.96;63.22;99941.63;1712066;82;21112;-72
2021/07/29 06:09:48;;;;;;;10.93;9.83;;;;;;;27.09;61.56;99944.84;1706010;82;21029;-72
2021/07/29 06:12:15;;;;;;;13.20;11.70;;;;;;;27.16;60.57;99938.05;1706226;81;21024;-72
2021/07/29 06:14:42;;;;;;;10.07;9.07;;;;;;;27.25;60.92;99947.30;1707066;81;20960;-71
2021/07/29 06:17:08;;;;;;;11.13;9.33;;;;;;;27.33;59.04;99949.67;1713087;81;21059;-71
2021/07/29 06:19:39;;;;;;;10.00;9.00;;;;;;;27.45;58.28;99946.41;1714203;81;21511;-72
2021/07/29 06:22:04;;;;;;;9.43;8.53;;;;;;;27.55;59.20;99948.39;1714724;81;20990;-72
2021/07/29 06:24:30;;;;;;;10.30;9.20;;;;;;;27.64;59.29;99946.64;1712122;81;21629;-72
2021/07/29 06:26:59;;;;;;;10.57;9.50;;;;;;;27.72;59.52;99942.76;1711614;81;21065;-72
2021/07/29 06:29:25;;;;;;;10.37;9.40;;;;;;;27.86;59.68;99938.70;1708183;81;21658;-72
2021/07/29 06:31:52;;;;;;;10.93;8.70;;;;;;;27.98;58.21;99932.84;1717776;82;21111;-72
2021/07/29 06:34:18;;;;;;;9.40;8.50;;;;;;;28.07;56.98;99935.22;1707234;82;21021;-72
2021/07/29 06:36:45;;;;;;;9.33;8.03;;;;;;;28.21;55.52;99936.59;1711393;81;21060;-73
2021/07/29 06:39:12;;;;;;;7.73;6.87;;;;;;;28.34;55.63;99926.59;1709281;81;21016;-71
2021/07/29 06:41:39;;;;;;;8.33;7.13;;;;;;;28.46;55.34;99931.13;1709571;82;21051;-72
2021/07/29 06:44:07;;;;;;;8.00;7.20;;;;;;;28.62;54.19;99931.30;1714836;82;21122;-72
2021/07/29 06:46:38;;;;;;;8.43;7.63;;;;;;;28.83;54.40;99920.88;1711176;81;20990;-71
2021/07/29 06:49:08;;;;;;;8.25;7.25;;;;;;;29.02;52.64;99926.52;1713499;82;21043;-72
2021/07/29 06:51:35;;;;;;;7.97;7.00;;;;;;;29.17;52.27;99931.58;1718082;82;21040;-72
2021/07/29 06:54:06;;;;;;;8.10;7.30;;;;;;;29.33;52.94;99923.47;1712444;82;21047;-72
2021/07/29 06:56:33;;;;;;;8.38;7.58;;;;;;;29.48;52.63;99922.20;1714014;81;21255;-73
2021/07/29 06:59:00;;;;;;;8.33;6.87;;;;;;;29.57;52.38;99919.80;1719278;82;20970;-70
2021/07/29 07:01:27;;;;;;;8.05;6.97;;;;;;;29.71;51.59;99912.67;1711339;82;21143;-72
2021/07/29 07:03:54;;;;;;;9.50;7.75;;;;;;;29.81;51.37;99913.20;1720813;81;21186;-72
2021/07/29 07:06:21;;;;;;;9.50;7.72;;;;;;;29.95;50.66;99907.61;1707829;81;21083;-72
2021/07/29 07:08:48;;;;;;;8.20;7.42;;;;;;;30.11;50.69;99911.23;1713303;82;21553;-72
2021/07/29 07:11:17;;;;;;;8.20;7.40;;;;;;;30.27;50.37;99911.50;1710592;81;21041;-73
2021/07/29 07:13:47;;;;;;;9.35;8.45;;;;;;;30.45;48.99;99904.47;1712108;82;21056;-74
2021/07/29 07:16:14;;;;;;;9.30;7.97;;;;;;;30.59;49.12;99909.05;1711820;81;20950;-72
2021/07/29 07:18:42;;;;;;;8.98;8.08;;;;;;;30.76;49.06;99905.92;1715203;82;21158;-74
2021/07/29 07:21:10;;;;;;;9.30;8.30;;;;;;;30.89;49.04;99914.48;1713202;82;21064;-73
2021/07/29 07:23:41;;;;;;;8.23;7.47;;;;;;;31.00;47.91;99909.64;1723911;82;21060;-73
2021/07/29 07:26:24;;;;;;;8.53;7.67;;;;;;;31.07;47.74;99910.93;1712534;81;21055;-73
2021/07/29 07:28:51;;;;;;;8.80;7.92;;;;;;;31.10;47.38;99914.24;1709733;81;21071;-73
2021/07/29 07:31:21;;;;;;;9.33;8.38;;;;;;;31.18;47.35;99909.41;1715246;82;21534;-73
2021/07/29 07:33:47;;;;;;;8.63;7.53;;;;;;;31.23;46.78;99914.48;1708298;82;22164;-73
2021/07/29 07:36:17;;;;;;;7.80;7.00;;;;;;;31.24;47.22;99909.92;1713145;82;21086;-71
2021/07/29 07:38:44;;;;;;;8.13;7.33;;;;;;;31.20;46.34;99913.33;1710835;82;21037;-73
2021/07/29 07:41:10;;;;;;;7.87;7.08;;;;;;;31.06;47.14;99914.29;1717481;81;21599;-73
2021/07/29 07:43:39;;;;;;;8.00;7.20;;;;;;;30.94;47.20;99914.81;1711445;82;21272;-73
2021/07/29 07:46:06;;;;;;;7.70;6.50;;;;;;;30.81;47.57;99906.89;1713032;81;21246;-72
2021/07/29 07:48:33;;;;;;;8.15;7.30;;;;;;;30.66;48.05;99901.30;1720698;82;21018;-74
2021/07/29 07:50:59;;;;;;;7.95;6.95;;;;;;;30.58;49.20;99906.12;1704568;82;21390;-72
2021/07/29 07:53:29;;;;;;;8.08;7.28;;;;;;;30.56;48.44;99905.73;1699707;83;21071;-72
2021/07/29 07:55:57;;;;;;;8.63;7.03;;;;;;;30.61;47.97;99899.19;1710384;81;21004;-73
2021/07/29 07:58:23;;;;;;;8.50;7.62;;;;;;;30.72;47.75;99901.05;1712438;83;21519;-72
2021/07/29 08:00:50;;;;;;;10.15;7.15;;;;;;;30.74;48.30;99902.20;1702910;82;21021;-72
2021/07/29 08:03:17;;;;;;;9.80;6.90;;;;;;;30.79;48.76;99908.66;1699530;82;21916;-72
2021/07/29 08:05:43;;;;;;;8.05;7.05;;;;;;;30.84;48.65;99905.47;1722014;80;21586;-72
2021/07/29 08:08:10;;;;;;;9.40;7.45;;;;;;;30.96;48.65;99903.36;1722804;80;21116;-73
2021/07/29 08:10:38;;;;;;;8.83;7.83;;;;;;;31.05;47.46;99899.52;1729372;80;21107;-73
2021/07/29 08:13:05;;;;;;;8.90;7.40;;;;;;;31.03;47.28;99895.80;1721565;82;21505;-72
2021/07/29 08:15:34;;;;;;;8.80;7.40;;;;;;;31.05;47.28;99894.78;1726951;80;21013;-73
2021/07/29 08:18:00;;;;;;;9.53;7.42;;;;;;;31.11;48.07;99893.73;1720936;82;21081;-73
2021/07/29 08:20:28;;;;;;;9.08;7.47;;;;;;;31.16;48.49;99885.58;1707071;82;20997;-73
2021/07/29 08:22:56;;;;;;;9.23;7.70;;;;;;;31.25;48.05;99883.89;1703310;83;21165;-73
2021/07/29 08:25:23;;;;;;;8.88;7.97;;;;;;;31.37;47.77;99876.29;1704751;81;20981;-73
2021/07/29 08:27:52;;;;;;;10.85;8.65;;;;;;;31.46;47.08;99880.70;1717174;82;21115;-73
2021/07/29 08:30:20;;;;;;;9.35;8.38;;;;;;;31.56;47.58;99880.34;1730012;82;21679;-74
2021/07/29 08:32:47;;;;;;;10.40;8.18;;;;;;;31.73;47.74;99884.84;1718885;83;21108;-72
2021/07/29 08:35:14;;;;;;;8.73;7.85;;;;;;;31.87;46.47;99884.61;1725951;82;21150;-72
2021/07/29 08:37:46;;;;;;;11.25;8.28;;;;;;;32.04;46.52;99880.63;1705948;83;20937;-73
2021/07/29 08:40:19;;;;;;;8.70;7.55;;;;;;;32.18;46.88;99881.77;1712685;82;21017;-72
2021/07/29 08:42:47;;;;;;;9.23;7.90;;;;;;;32.29;47.70;99880.99;1707460;82;21005;-72
2021/07/29 08:45:14;;;;;;;11.53;8.10;;;;;;;32.45;46.50;99884.50;1711608;83;21146;-73
2021/07/29 08:47:48;;;;;;;9.95;8.00;;;;;;;32.63;47.29;99879.40;1698006;82;22008;-73
2021/07/29 08:50:12;;;;;;;10.28;8.78;;;;;;;32.82;46.03;99875.70;1713871;82;21044;-73
2021/07/29 08:52:39;;;;;;;9.15;7.67;;;;;;;33.01;45.51;99876.33;1708518;82;22297;-72
2021/07/29 08:55:07;;;;;;;9.03;8.13;;;;;;;33.18;44.79;99868.85;1706765;83;21093;-72
2021/07/29 08:57:40;;;;;;;10.48;9.53;;;;;;;33.31;44.52;99867.59;1706100;82;21591;-72
2021/07/29 09:00:08;;;;;;;11.97;10.83;;;;;;;33.43;44.07;99861.98;1710003;82;21853;-73
2021/07/29 09:02:35;;;;;;;12.58;9.45;;;;;;;33.49;44.37;99864.44;1711201;83;21076;-72
2021/07/29 09:05:15;;;;;;;12.33;11.08;;;;;;;33.49;44.06;99869.37;1692181;82;21715;-72
2021/07/29 09:07:42;;;;;;;11.03;10.03;;;;;;;33.51;43.49;99866.95;1704044;82;21033;-74
2021/07/29 09:10:24;;;;;;;12.28;10.20;;;;;;;33.29;43.66;99863.08;1719563;80;20977;-72
2021/07/29 09:13:15;;;;;;;11.75;10.53;;;;;;;33.03;44.38;99863.44;1706138;83;21146;-71
2021/07/29 09:15:46;;;;;;;14.05;12.63;;;;;;;32.95;44.54;99866.16;1725558;82;21299;-75
2021/07/29 09:18:19;;;;;;;;;;;;;;;32.97;45.15;99866.52;1713165;81;21500;-73
2021/07/29 09:20:47;;;;;;;11.43;10.13;;;;;;;33.07;44.91;99852.48;1716233;82;20771;-72
2021/07/29 09:23:19;;;;;;;12.58;10.90;;;;;;;33.22;44.61;99851.56;1721687;82;21006;-73
2021/07/29 09:25:59;;;;;;;13.08;10.80;;;;;;;33.34;43.19;99848.74;1735427;82;21140;-73
2021/07/29 09:28:34;;;;;;;11.65;10.30;;;;;;;33.25;43.72;99838.25;1705922;81;21017;-71
2021/07/29 09:31:21;;;;;;;13.28;11.12;;;;;;;33.20;44.62;99842.90;1731278;82;21022;-73
2021/07/29 09:34:00;;;;;;;11.85;9.80;;;;;;;33.21;45.05;99844.48;1701544;83;21026;-71
2021/07/29 09:36:28;;;;;;;10.85;9.65;;;;;;;33.32;44.26;99835.31;1723916;80;21014;-71
2021/07/29 09:39:19;;;;;;;13.93;9.55;;;;;;;33.30;44.66;99843.29;1722000;81;21492;-71
2021/07/29 09:41:47;;;;;;;10.75;8.90;;;;;;;33.34;43.55;99838.45;1702848;83;21496;-71
2021/07/29 09:44:14;;;;;;;11.68;9.05;;;;;;;33.36;43.68;99828.31;1710066;81;20982;-73
2021/07/29 09:46:41;;;;;;;10.98;9.28;;;;;;;33.41;43.78;99828.42;1723844;80;21048;-72
2021/07/29 09:49:08;;;;;;;11.12;9.10;;;;;;;33.39;43.56;99828.84;1727441;80;21060;-72
2021/07/29 09:51:36;;;;;;;10.18;9.15;;;;;;;33.36;43.16;99823.55;1720047;82;21159;-71
2021/07/29 09:54:02;;;;;;;10.63;9.48;;;;;;;33.22;43.75;99825.87;1713651;83;22132;-71
2021/07/29 09:56:29;;;;;;;11.40;9.25;;;;;;;33.15;44.26;99824.05;1709920;82;20994;-72
2021/07/29 09:58:56;;;;;;;13.48;9.48;;;;;;;33.05;44.33;99829.99;1711039;81;20978;-72
2021/07/29 10:01:22;;;;;;;13.05;8.88;;;;;;;33.01;43.69;99823.77;1721017;81;21060;-74
2021/07/29 10:03:51;;;;;;;12.63;8.58;;;;;;;33.02;43.56;99823.93;1726029;82;21218;-74
2021/07/29 10:06:22;;;;;;;10.93;8.25;;;;;;;33.00;43.34;99824.17;1732940;82;21037;-73
2021/07/29 10:08:58;;;;;;;9.63;7.75;;;;;;;33.05;44.02;99797.40;1727523;80;28256;-72
2021/07/29 10:11:28;;;;;;;9.93;8.05;;;;;;;33.17;43.89;99816.11;1704939;82;21087;-73
2021/07/29 10:13:56;;;;;;;16.32;9.05;;;;;;;33.32;43.80;99822.09;1707084;82;21037;-73
2021/07/29 10:16:46;;;;;;;11.40;7.83;;;;;;;33.37;42.50;99822.36;1717561;81;21505;-71
2021/07/29 10:19:14;;;;;;;10.93;8.03;;;;;;;33.32;42.77;99813.17;1705268;82;21361;-73
2021/07/29 10:21:43;;;;;;;10.35;7.08;;;;;;;33.34;41.32;99820.45;1719057;81;21605;-72
2021/07/29 10:24:10;;;;;;;11.55;7.40;;;;;;;33.29;40.59;99822.95;1704044;83;21241;-72
2021/07/29 10:27:03;;;;;;;10.30;7.40;;;;;;;33.21;41.13;99816.80;1713975;83;20913;-72
2021/07/29 10:29:31;;;;;;;11.30;7.50;;;;;;;33.15;41.17;99808.83;1708254;82;21199;-72
2021/07/29 10:32:02;;;;;;;14.15;7.90;;;;;;;32.96;40.71;99814.57;1717147;83;21025;-72
2021/07/29 10:34:31;;;;;;;10.40;7.22;;;;;;;32.59;42.49;99806.81;1707913;82;21194;-72
2021/07/29 10:37:01;;;;;;;15.63;11.65;;;;;;;32.52;42.85;99802.03;1705679;82;21169;-72
2021/07/29 10:39:27;;;;;;;11.30;8.13;;;;;;;32.52;42.85;99802.03;1720126;82;21189;-72
2021/07/29 10:42:00;;;;;;;12.73;8.03;;;;;;;32.58;42.40;99787.90;1711160;83;22115;-72
2021/07/29 10:44:39;;;;;;;9.70;7.53;;;;;;;32.65;41.92;99790.52;1721927;82;21010;-72
2021/07/29 10:47:07;;;;;;;11.28;7.40;;;;;;;32.70;41.87;99785.24;1713340;83;21067;-71
2021/07/29 10:50:04;;;;;;;9.95;7.42;;;;;;;32.76;41.18;99787.52;1706792;82;21051;-74
2021/07/29 10:52:31;;;;;;;13.78;9.98;;;;;;;32.72;41.65;99787.59;1708843;83;21033;-73
2021/07/29 10:54:57;;;;;;;10.88;6.70;;;;;;;32.62;40.76;99794.13;1723791;81;21483;-72
2021/07/29 10:57:24;;;;;;;12.25;6.87;;;;;;;32.62;40.76;99794.13;1710645;81;21050;-72
2021/07/29 10:59:52;;;;;;;13.50;8.00;;;;;;;32.41;40.66;99789.75;1707889;81;21084;-73
2021/07/29 11:02:43;;;;;;;7.83;6.17;;;;;;;32.40;41.14;99790.36;1710884;81;21004;-72
2021/07/29 11:05:09;;;;;;;10.55;6.08;;;;;;;32.52;40.00;99782.69;1714410;82;21104;-72
2021/07/29 11:07:41;;;;;;;8.18;5.05;;;;;;;32.53;39.87;99784.23;1717153;82;21171;-72
2021/07/29 11:10:13;;;;;;;9.30;5.37;;;;;;;32.51;37.28;99784.67;1711916;81;21092;-72
2021/07/29 11:12:40;;;;;;;11.10;5.30;;;;;;;32.43;37.60;99779.87;1709925;82;21150;-73
2021/07/29 11:15:08;;;;;;;9.58;5.00;;;;;;;32.45;38.33;99784.38;1715433;81;21172;-72
2021/07/29 11:17:35;;;;;;;10.18;4.80;;;;;;;32.52;37.51;99778.54;1710688;82;21052;-72
2021/07/29 11:20:03;;;;;;;11.50;8.03;;;;;;;32.52;37.24;99775.17;1714025;81;21815;-72
2021/07/29 11:22:30;;;;;;;10.25;6.00;;;;;;;32.50;38.17;99772.64;1712013;81;21045;-72
2021/07/29 11:25:09;;;;;;;8.60;4.97;;;;;;;32.55;38.31;99775.70;1712959;82;21427;-71
2021/07/29 11:27:37;;;;;;;10.40;5.03;;;;;;;32.65;37.73;99776.08;1709163;83;21082;-72